createdAt,value
2023-04-28T00:00:11.928Z,13.97
2023-04-28T00:02:40.048Z,16.47
2023-04-28T00:05:08.728Z,11.50
2023-04-28T00:07:36.459Z,15.10
2023-04-28T00:10:04.538Z,15.30
2023-04-28T00:12:32.601Z,14.30
2023-04-28T00:15:00.268Z,13.20
2023-04-28T00:17:28.202Z,9.87
2023-04-28T00:19:56.064Z,11.20
2023-04-28T00:22:23.774Z,14.70
2023-04-28T00:24:51.980Z,12.43
2023-04-28T00:27:20.921Z,9.13
2023-04-28T00:29:48.901Z,10.90
2023-04-28T00:32:16.717Z,13.17
2023-04-28T00:34:44.593Z,12.27
2023-04-28T00:37:12.662Z,16.47
2023-04-28T00:39:41.778Z,10.47
2023-04-28T00:42:09.587Z,13.53
2023-04-28T00:44:37.259Z,14.67
2023-04-28T00:47:05.764Z,10.77
2023-04-28T00:49:34.330Z,10.57
2023-04-28T00:52:08.242Z,13.60
2023-04-28T00:54:36.619Z,16.50
2023-04-28T00:57:05.173Z,12.80
2023-04-28T00:59:33.388Z,10.80
2023-04-28T01:02:09.407Z,11.07
2023-04-28T01:04:37.657Z,15.23
2023-04-28T01:07:05.944Z,13.57
2023-04-28T01:09:34.056Z,13.50
2023-04-28T01:12:02.501Z,13.40
2023-04-28T01:14:44.660Z,17.00
2023-04-28T01:17:13.204Z,12.57
2023-04-28T01:19:42.161Z,15.10
2023-04-28T01:22:14.137Z,13.57
2023-04-28T01:24:43.074Z,16.37
2023-04-28T01:27:13.582Z,12.40
2023-04-28T01:29:42.850Z,11.90
2023-04-28T01:32:10.627Z,15.13
2023-04-28T01:34:38.396Z,13.50
2023-04-28T01:37:07.291Z,13.50
2023-04-28T01:39:37.650Z,15.07
2023-04-28T01:42:06.234Z,15.80
2023-04-28T01:44:35.072Z,12.50
2023-04-28T01:47:02.955Z,12.77
2023-04-28T01:49:30.879Z,17.20
2023-04-28T01:51:58.646Z,16.43
2023-04-28T01:54:27.582Z,15.27
2023-04-28T01:56:55.844Z,16.80
2023-04-28T01:59:24.278Z,14.77
2023-04-28T02:01:52.278Z,15.50
2023-04-28T02:04:20.293Z,20.87
2023-04-28T02:06:48.135Z,16.43
2023-04-28T02:09:16.132Z,19.07
2023-04-28T02:11:44.274Z,15.73
2023-04-28T02:14:12.207Z,13.83
2023-04-28T02:16:39.938Z,14.07
2023-04-28T02:19:07.752Z,17.00
2023-04-28T02:21:35.569Z,14.43
2023-04-28T02:24:03.534Z,18.70
2023-04-28T02:26:34.223Z,15.13
2023-04-28T02:29:04.593Z,15.27
2023-04-28T02:31:33.542Z,20.77
2023-04-28T02:34:01.966Z,22.43
2023-04-28T02:36:29.740Z,14.77
2023-04-28T02:38:57.752Z,17.90
2023-04-28T02:41:26.445Z,19.10
2023-04-28T02:43:54.185Z,17.43
2023-04-28T02:46:21.875Z,19.77
2023-04-28T02:48:50.711Z,14.57
2023-04-28T02:51:18.379Z,16.33
2023-04-28T02:53:46.945Z,19.80
2023-04-28T02:56:15.131Z,15.67
2023-04-28T02:58:42.980Z,17.70
2023-04-28T03:01:10.786Z,20.70
2023-04-28T03:03:38.928Z,18.27
2023-04-28T03:06:07.254Z,17.63
2023-04-28T03:08:35.305Z,17.13
2023-04-28T03:11:03.124Z,22.10
2023-04-28T03:13:31.100Z,18.50
2023-04-28T03:15:59.419Z,25.87
2023-04-28T03:18:28.972Z,17.10
2023-04-28T03:20:57.314Z,17.60
2023-04-28T03:23:27.249Z,23.23
2023-04-28T03:25:55.681Z,16.53
2023-04-28T03:28:26.505Z,17.00
2023-04-28T03:30:54.594Z,21.20
2023-04-28T03:33:22.416Z,21.43
2023-04-28T03:35:50.450Z,19.30
2023-04-28T03:38:18.433Z,19.87
2023-04-28T03:40:46.616Z,19.67
2023-04-28T03:43:43.108Z,17.17
2023-04-28T03:46:27.171Z,19.93
2023-04-28T03:48:55.487Z,19.60
2023-04-28T03:51:23.223Z,19.90
2023-04-28T03:53:50.942Z,20.97
2023-04-28T03:56:18.629Z,25.00
2023-04-28T03:58:46.688Z,19.63
2023-04-28T04:01:14.339Z,20.37
2023-04-28T04:03:42.222Z,21.83
2023-04-28T04:06:10.407Z,21.20
2023-04-28T04:08:38.227Z,20.63
2023-04-28T04:11:05.929Z,20.00
2023-04-28T04:13:33.698Z,23.90
2023-04-28T04:16:03.131Z,25.33
2023-04-28T04:18:31.140Z,23.17
2023-04-28T04:21:28.648Z,20.10
2023-04-28T04:23:56.744Z,22.20
2023-04-28T04:26:24.726Z,23.90
2023-04-28T04:28:52.831Z,23.77
2023-04-28T04:31:20.940Z,21.67
2023-04-28T04:33:49.623Z,23.00
2023-04-28T04:36:20.113Z,23.33
2023-04-28T04:38:48.505Z,20.80
2023-04-28T04:41:22.869Z,20.90
2023-04-28T04:43:56.886Z,22.60
2023-04-28T04:46:30.838Z,24.00
2023-04-28T04:48:58.756Z,21.90
2023-04-28T04:51:28.317Z,24.70
2023-04-28T04:53:56.483Z,22.90
2023-04-28T04:56:24.153Z,24.70
2023-04-28T04:58:53.697Z,25.40
2023-04-28T05:01:51.039Z,25.03
2023-04-28T05:04:19.249Z,25.43
2023-04-28T05:06:48.808Z,22.27
2023-04-28T05:09:17.236Z,20.33
2023-04-28T05:11:46.382Z,22.23
2023-04-28T05:14:14.645Z,23.63
2023-04-28T05:16:43.295Z,20.10
2023-04-28T05:19:16.527Z,21.37
2023-04-28T05:21:44.776Z,25.43
2023-04-28T05:24:13.539Z,20.60
2023-04-28T05:26:41.908Z,23.53
2023-04-28T05:29:11.107Z,26.13
2023-04-28T05:31:39.114Z,25.13
2023-04-28T05:34:06.953Z,22.20
2023-04-28T05:36:34.893Z,26.70
2023-04-28T05:39:03.154Z,23.10
2023-04-28T05:41:31.078Z,23.00
2023-04-28T05:43:58.828Z,22.83
2023-04-28T05:46:30.822Z,23.33
2023-04-28T05:49:02.239Z,19.93
2023-04-28T05:51:34.523Z,19.67
2023-04-28T05:54:03.898Z,23.40
2023-04-28T05:56:35.297Z,24.73
2023-04-28T05:59:04.727Z,21.00
2023-04-28T06:01:33.519Z,26.60
2023-04-28T06:04:01.668Z,27.80
2023-04-28T06:06:29.861Z,29.77
2023-04-28T06:08:58.014Z,20.20
2023-04-28T06:11:27.068Z,20.87
2023-04-28T06:13:54.872Z,24.70
2023-04-28T06:16:23.644Z,22.67
2023-04-28T06:18:52.256Z,21.37
2023-04-28T06:21:21.602Z,21.60
2023-04-28T06:23:52.413Z,25.77
2023-04-28T06:26:20.612Z,24.63
2023-04-28T06:28:48.505Z,16.30
2023-04-28T06:31:16.587Z,20.43
2023-04-28T06:33:44.324Z,22.27
2023-04-28T06:36:17.001Z,24.53
2023-04-28T06:38:46.313Z,21.50
2023-04-28T06:41:14.261Z,25.37
2023-04-28T06:43:44.543Z,21.87
2023-04-28T06:46:17.366Z,24.37
2023-04-28T06:48:45.784Z,20.13
2023-04-28T06:51:15.364Z,28.60
2023-04-28T06:53:43.267Z,27.10
2023-04-28T06:56:11.786Z,24.00
2023-04-28T06:58:39.982Z,17.27
2023-04-28T07:01:07.747Z,18.20
2023-04-28T07:03:36.332Z,23.97
2023-04-28T07:06:05.256Z,17.93
2023-04-28T07:08:33.393Z,16.70
2023-04-28T07:11:04.961Z,16.70
2023-04-28T07:13:34.217Z,20.93
2023-04-28T07:16:02.994Z,15.53
2023-04-28T07:18:31.074Z,14.87
2023-04-28T07:20:59.203Z,14.80
2023-04-28T07:23:27.271Z,14.30
2023-04-28T07:25:55.654Z,15.93
2023-04-28T07:28:23.609Z,15.40
2023-04-28T07:30:51.395Z,14.97
2023-04-28T07:33:19.368Z,13.50
2023-04-28T07:35:48.022Z,15.00
2023-04-28T07:38:16.017Z,11.00
2023-04-28T07:40:44.416Z,12.33
2023-04-28T07:43:12.009Z,11.10
2023-04-28T07:45:41.512Z,15.53
2023-04-28T07:48:09.617Z,10.67
2023-04-28T07:50:37.592Z,12.93
2023-04-28T07:53:05.361Z,9.90
2023-04-28T07:55:33.108Z,11.70
2023-04-28T07:58:01.036Z,17.33
2023-04-28T08:00:28.985Z,10.90
2023-04-28T08:02:57.899Z,11.50
2023-04-28T08:05:26.101Z,10.80
2023-04-28T08:07:54.648Z,12.20
2023-04-28T08:10:22.879Z,9.20
2023-04-28T08:12:50.544Z,8.83
2023-04-28T08:15:18.869Z,8.47
2023-04-28T08:17:47.423Z,11.23
2023-04-28T08:20:21.611Z,11.80
2023-04-28T08:22:51.221Z,13.47
2023-04-28T08:25:18.987Z,11.43
2023-04-28T08:27:46.750Z,10.37
2023-04-28T08:30:14.510Z,11.37
2023-04-28T08:32:42.344Z,12.17
2023-04-28T08:35:10.538Z,12.13
2023-04-28T08:37:38.868Z,19.43
2023-04-28T08:40:11.281Z,10.40
2023-04-28T08:42:39.961Z,11.53
2023-04-28T08:45:13.341Z,8.67
2023-04-28T08:47:46.215Z,10.57
2023-04-28T08:50:16.533Z,10.60
2023-04-28T08:52:44.341Z,11.70
2023-04-28T08:55:14.166Z,10.80
2023-04-28T08:57:54.924Z,10.60
2023-04-28T09:00:23.404Z,10.30
2023-04-28T09:02:51.244Z,10.03
2023-04-28T09:05:19.453Z,13.27
2023-04-28T09:07:48.897Z,10.10
2023-04-28T09:10:26.631Z,14.33
2023-04-28T09:12:56.844Z,8.57
2023-04-28T09:15:37.497Z,7.00
2023-04-28T09:18:08.415Z,8.63
2023-04-28T09:20:37.467Z,10.87
2023-04-28T09:23:22.686Z,10.57
2023-04-28T09:26:16.965Z,11.23
2023-04-28T09:28:44.856Z,10.10
2023-04-28T09:31:30.496Z,8.77
2023-04-28T09:34:00.718Z,11.00
2023-04-28T09:36:31.123Z,8.07
2023-04-28T09:39:00.356Z,13.90
2023-04-28T09:41:44.093Z,10.10
2023-04-28T09:44:21.687Z,9.63
2023-04-28T09:46:49.472Z,8.30
2023-04-28T09:49:17.101Z,14.23
2023-04-28T09:51:44.952Z,12.07
2023-04-28T09:54:14.284Z,12.13
2023-04-28T09:56:48.172Z,14.10
2023-04-28T09:59:16.182Z,14.20
2023-04-28T10:01:46.569Z,8.40
2023-04-28T10:04:15.673Z,11.83
2023-04-28T10:06:45.013Z,10.13
2023-04-28T10:09:14.263Z,12.37
2023-04-28T10:11:42.489Z,10.27
2023-04-28T10:14:12.107Z,10.90
2023-04-28T10:16:40.528Z,11.03
2023-04-28T10:19:11.083Z,9.10
2023-04-28T10:21:59.726Z,9.93
2023-04-28T10:24:33.066Z,11.00
2023-04-28T10:27:11.732Z,9.13
2023-04-28T10:29:39.704Z,12.07
2023-04-28T10:32:28.750Z,11.40
2023-04-28T10:35:23.134Z,10.40
2023-04-28T10:38:19.166Z,10.47
2023-04-28T10:40:54.520Z,8.43
2023-04-28T10:43:34.080Z,12.83
2023-04-28T10:46:09.037Z,12.33
2023-04-28T10:48:56.804Z,13.00
2023-04-28T10:51:25.706Z,12.47
2023-04-28T10:53:53.392Z,12.33
2023-04-28T10:56:28.033Z,12.80
2023-04-28T10:58:58.891Z,14.20
2023-04-28T11:01:28.588Z,12.20
2023-04-28T11:04:18.367Z,11.97
2023-04-28T11:07:13.902Z,10.67
2023-04-28T11:09:42.135Z,18.23
2023-04-28T11:12:13.680Z,14.50
2023-04-28T11:14:41.608Z,14.53
2023-04-28T11:17:14.038Z,14.20
2023-04-28T11:19:48.563Z,20.30
2023-04-28T11:22:23.529Z,16.07
2023-04-28T11:25:04.004Z,14.93
2023-04-28T11:27:34.732Z,14.90
2023-04-28T11:30:03.067Z,23.40
2023-04-28T11:32:35.463Z,20.60
2023-04-28T11:35:04.896Z,21.90
2023-04-28T11:37:32.798Z,22.30
2023-04-28T11:40:13.331Z,20.77
2023-04-28T11:42:50.580Z,22.30
2023-04-28T11:45:18.677Z,23.80
2023-04-28T11:47:46.940Z,19.03
2023-04-28T11:50:15.849Z,20.53
2023-04-28T11:52:53.575Z,20.07
2023-04-28T11:55:21.877Z,19.10
2023-04-28T11:57:49.772Z,23.67
2023-04-28T12:00:22.084Z,21.80
2023-04-28T12:02:51.096Z,21.60
2023-04-28T12:05:22.344Z,22.23
2023-04-28T12:07:50.580Z,23.20
2023-04-28T12:10:19.946Z,24.87
2023-04-28T12:12:52.449Z,25.80
2023-04-28T12:15:23.596Z,23.23
2023-04-28T12:17:52.135Z,27.20
2023-04-28T12:20:39.844Z,25.63
2023-04-28T12:23:08.572Z,25.73
2023-04-28T12:25:48.467Z,28.33
2023-04-28T12:28:16.423Z,29.13
2023-04-28T12:30:44.600Z,24.30
2023-04-28T12:33:31.361Z,28.20
2023-04-28T12:35:59.873Z,26.10
2023-04-28T12:38:28.675Z,26.60
2023-04-28T12:40:57.550Z,23.30
2023-04-28T12:43:27.244Z,27.07
2023-04-28T12:45:58.462Z,32.00
2023-04-28T12:48:27.454Z,25.50
2023-04-28T12:50:55.113Z,25.00
2023-04-28T12:53:22.886Z,22.50
2023-04-28T12:55:50.801Z,24.50
2023-04-28T12:58:18.563Z,22.97
2023-04-28T13:00:46.391Z,21.73
2023-04-28T13:03:15.933Z,19.67
2023-04-28T13:05:44.394Z,20.70
2023-04-28T13:08:14.120Z,18.50
2023-04-28T13:10:42.000Z,16.10
2023-04-28T13:13:09.637Z,18.23
2023-04-28T13:15:38.973Z,14.40
2023-04-28T13:18:07.263Z,11.43
2023-04-28T13:20:35.064Z,10.37
2023-04-28T13:23:03.645Z,9.90
2023-04-28T13:25:31.523Z,10.70
2023-04-28T13:27:59.441Z,9.57
2023-04-28T13:30:27.239Z,9.70
2023-04-28T13:32:56.840Z,9.90
2023-04-28T13:35:26.317Z,8.13
2023-04-28T13:38:01.740Z,8.50
2023-04-28T13:40:31.292Z,8.20
2023-04-28T13:42:58.967Z,8.63
2023-04-28T13:45:27.086Z,8.53
2023-04-28T13:47:58.327Z,9.73
2023-04-28T13:50:26.279Z,8.00
2023-04-28T13:52:54.207Z,9.20
2023-04-28T13:55:27.825Z,8.17
2023-04-28T13:57:57.149Z,8.83
2023-04-28T14:00:25.043Z,9.30
2023-04-28T14:02:53.173Z,7.50
2023-04-28T14:05:21.179Z,8.03
2023-04-28T14:07:49.012Z,8.20
2023-04-28T14:10:17.010Z,9.47
2023-04-28T14:12:44.887Z,10.40
2023-04-28T14:15:12.758Z,8.50
2023-04-28T14:17:40.590Z,8.77
2023-04-28T14:20:11.803Z,11.40
2023-04-28T14:22:42.496Z,9.33
2023-04-28T14:25:14.473Z,10.70
2023-04-28T14:27:46.273Z,10.50
2023-04-28T14:30:19.430Z,12.70
2023-04-28T14:32:51.646Z,9.83
2023-04-28T14:35:21.594Z,9.57
2023-04-28T14:37:49.888Z,9.07
2023-04-28T14:40:17.570Z,8.47
2023-04-28T14:42:45.383Z,9.80
2023-04-28T14:45:13.222Z,9.60
2023-04-28T14:47:42.434Z,9.90
2023-04-28T14:50:13.183Z,9.80
2023-04-28T14:52:42.677Z,9.93
2023-04-28T14:55:11.188Z,11.03
2023-04-28T14:57:38.885Z,10.67
2023-04-28T15:00:09.133Z,10.90
2023-04-28T15:02:37.358Z,10.60
2023-04-28T15:05:06.657Z,9.00
2023-04-28T15:07:34.682Z,9.53
2023-04-28T15:10:02.521Z,10.07
2023-04-28T15:12:30.967Z,12.57
2023-04-28T15:14:59.355Z,10.13
2023-04-28T15:17:27.317Z,10.33
2023-04-28T15:19:55.373Z,11.50
2023-04-28T15:22:23.077Z,11.80
2023-04-28T15:24:52.501Z,16.97
2023-04-28T15:27:20.484Z,14.80
2023-04-28T15:29:48.186Z,13.10
2023-04-28T15:32:16.090Z,14.37
2023-04-28T15:34:44.296Z,12.40
2023-04-28T15:37:47.743Z,13.60
2023-04-28T15:40:19.357Z,31.20
2023-04-28T15:42:53.239Z,10.77
2023-04-28T15:45:23.070Z,9.87
2023-04-28T15:47:51.981Z,11.10
2023-04-28T15:50:20.710Z,8.80
2023-04-28T15:52:50.235Z,9.30
2023-04-28T15:55:22.319Z,8.53
2023-04-28T15:57:50.203Z,7.90
2023-04-28T16:00:18.132Z,9.47
2023-04-28T16:02:46.893Z,8.53
2023-04-28T16:05:14.958Z,6.93
2023-04-28T16:07:43.102Z,6.30
2023-04-28T16:10:16.132Z,8.10
2023-04-28T16:12:44.293Z,6.80
2023-04-28T16:15:14.062Z,7.07
2023-04-28T16:17:42.452Z,5.80
2023-04-28T16:20:12.221Z,5.77
2023-04-28T16:22:42.190Z,6.80
2023-04-28T16:25:12.053Z,8.60
2023-04-28T16:27:43.079Z,7.97
2023-04-28T16:30:11.886Z,8.27
2023-04-28T16:32:40.964Z,7.87
2023-04-28T16:35:15.231Z,7.37
2023-04-28T16:37:43.833Z,9.13
2023-04-28T16:40:14.419Z,8.37
2023-04-28T16:42:43.596Z,8.20
2023-04-28T16:45:13.182Z,8.77
2023-04-28T16:47:44.124Z,8.90
2023-04-28T16:50:16.695Z,7.60
2023-04-28T16:52:45.084Z,7.70
2023-04-28T16:55:12.897Z,9.23
2023-04-28T16:57:40.634Z,8.07
2023-04-28T17:00:10.151Z,7.03
2023-04-28T17:02:38.406Z,7.80
2023-04-28T17:05:07.444Z,8.50
2023-04-28T17:07:35.283Z,6.20
2023-04-28T17:10:03.548Z,6.97
2023-04-28T17:12:31.601Z,5.37
2023-04-28T17:14:59.431Z,8.00
2023-04-28T17:17:27.459Z,5.50
2023-04-28T17:19:57.125Z,6.37
2023-04-28T17:22:25.219Z,7.13
2023-04-28T17:24:52.983Z,9.70
2023-04-28T17:27:21.031Z,8.50
2023-04-28T17:32:16.770Z,6.50
2023-04-28T17:34:45.653Z,8.03
2023-04-28T17:37:13.322Z,7.13
2023-04-28T17:39:41.205Z,7.13
2023-04-28T17:42:09.110Z,7.50
2023-04-28T17:44:36.827Z,7.63
2023-04-28T17:47:04.774Z,6.03
2023-04-28T17:49:32.743Z,6.20
2023-04-28T17:52:00.746Z,7.90
2023-04-28T17:54:28.528Z,6.47
2023-04-28T17:56:56.230Z,7.23
2023-04-28T17:59:24.205Z,6.93
2023-04-28T18:01:56.236Z,6.60
2023-04-28T18:04:24.165Z,7.17
2023-04-28T18:06:51.943Z,6.50
2023-04-28T18:09:19.917Z,9.33
2023-04-28T18:11:48.015Z,6.53
2023-04-28T18:14:18.405Z,7.83
2023-04-28T18:16:46.777Z,7.50
2023-04-28T18:19:14.858Z,8.13
2023-04-28T18:21:42.741Z,9.50
2023-04-28T18:24:10.448Z,10.47
2023-04-28T18:26:38.199Z,11.07
2023-04-28T18:29:05.969Z,9.87
2023-04-28T18:31:34.153Z,13.83
2023-04-28T18:34:03.331Z,11.53
2023-04-28T18:36:37.928Z,15.20
2023-04-28T18:39:07.049Z,16.13
2023-04-28T18:41:39.025Z,17.80
2023-04-28T18:44:06.992Z,14.90
2023-04-28T18:46:35.176Z,20.80
2023-04-28T18:49:03.607Z,17.47
2023-04-28T18:51:31.374Z,18.37
2023-04-28T18:53:59.803Z,18.03
2023-04-28T18:56:27.739Z,19.60
2023-04-28T18:58:55.685Z,19.70
2023-04-28T19:01:24.951Z,18.67
2023-04-28T19:03:53.655Z,18.27
2023-04-28T19:06:22.084Z,18.63
2023-04-28T19:08:49.825Z,15.87
2023-04-28T19:11:17.818Z,19.73
2023-04-28T19:13:45.536Z,17.73
2023-04-28T19:16:13.728Z,19.90
2023-04-28T19:18:42.276Z,16.30
2023-04-28T19:21:12.313Z,18.97
2023-04-28T19:23:41.024Z,17.30
2023-04-28T19:26:10.541Z,17.30
2023-04-28T19:28:38.385Z,18.90
2023-04-28T19:31:06.194Z,17.80
2023-04-28T19:33:33.937Z,17.87
2023-04-28T19:36:01.781Z,17.20
2023-04-28T19:38:29.549Z,16.47
2023-04-28T19:41:02.055Z,18.77
2023-04-28T19:43:30.818Z,16.67
2023-04-28T19:45:58.916Z,19.50
2023-04-28T19:48:26.759Z,15.67
2023-04-28T19:50:54.747Z,24.73
2023-04-28T19:53:22.741Z,19.40
2023-04-28T19:55:50.945Z,19.63
2023-04-28T19:58:18.624Z,18.60
2023-04-28T20:00:48.083Z,16.50
2023-04-28T20:03:17.353Z,19.47
2023-04-28T20:05:45.414Z,20.03
2023-04-28T20:08:13.343Z,21.27
2023-04-28T20:10:41.352Z,23.33
2023-04-28T20:13:09.234Z,23.10
2023-04-28T20:15:37.001Z,23.97
2023-04-28T20:18:04.829Z,25.27
2023-04-28T20:20:32.582Z,22.60
2023-04-28T20:23:00.335Z,25.93
2023-04-28T20:25:28.395Z,27.70
2023-04-28T20:27:56.343Z,26.87
2023-04-28T20:30:24.793Z,28.00
2023-04-28T20:32:53.132Z,28.17
2023-04-28T20:35:22.982Z,26.10
2023-04-28T20:37:50.770Z,26.13
2023-04-28T20:40:18.802Z,24.53
2023-04-28T20:42:46.591Z,23.80
2023-04-28T20:45:14.584Z,21.63
2023-04-28T20:47:42.672Z,24.90
2023-04-28T20:50:11.704Z,24.80
2023-04-28T20:52:39.729Z,24.50
2023-04-28T20:55:09.662Z,26.37
2023-04-28T20:57:37.395Z,24.23
2023-04-28T21:00:07.211Z,27.53
2023-04-28T21:02:35.111Z,27.77
2023-04-28T21:05:03.037Z,28.33
2023-04-28T21:07:31.349Z,26.60
2023-04-28T21:09:59.392Z,29.67
2023-04-28T21:12:27.099Z,31.57
2023-04-28T21:14:54.679Z,29.70
2023-04-28T21:17:23.177Z,34.00
2023-04-28T21:19:53.516Z,31.33
2023-04-28T21:22:21.457Z,30.73
2023-04-28T21:24:49.306Z,31.73
2023-04-28T21:27:17.276Z,33.63
2023-04-28T21:29:44.977Z,29.87
2023-04-28T21:32:13.499Z,26.53
2023-04-28T21:34:41.698Z,28.17
2023-04-28T21:37:09.339Z,29.73
2023-04-28T21:39:37.254Z,30.47
2023-04-28T21:42:06.463Z,28.97
2023-04-28T21:44:34.363Z,31.43
2023-04-28T21:47:02.352Z,29.60
2023-04-28T21:49:30.501Z,28.40
2023-04-28T21:51:58.316Z,29.20
2023-04-28T21:54:26.242Z,29.30
2023-04-28T21:56:53.877Z,30.37
2023-04-28T21:59:21.796Z,24.80
2023-04-28T22:01:51.668Z,26.43
2023-04-28T22:04:19.930Z,27.43
2023-04-28T22:06:48.419Z,28.43
2023-04-28T22:09:16.745Z,28.33
2023-04-28T22:11:44.889Z,29.40
2023-04-28T22:14:21.517Z,28.60
2023-04-28T22:17:00.543Z,28.60
2023-04-28T22:19:28.577Z,29.47
2023-04-28T22:21:56.320Z,33.17
2023-04-28T22:24:24.493Z,28.40
2023-04-28T22:26:52.167Z,31.50
2023-04-28T22:29:20.873Z,28.40
2023-04-28T22:31:48.780Z,29.30
2023-04-28T22:34:16.912Z,28.30
2023-04-28T22:36:45.369Z,36.17
2023-04-28T22:39:13.352Z,31.30
2023-04-28T22:41:41.473Z,30.67
2023-04-28T22:44:09.406Z,30.27
2023-04-28T22:46:37.203Z,29.50
2023-04-28T22:49:05.088Z,32.83
2023-04-28T22:51:32.810Z,32.20
2023-04-28T22:54:01.557Z,32.93
2023-04-28T22:56:29.413Z,32.40
2023-04-28T22:58:57.748Z,33.00
2023-04-28T23:01:25.563Z,37.63
2023-04-28T23:03:53.535Z,35.97
2023-04-28T23:06:21.288Z,37.83
2023-04-28T23:08:49.161Z,39.30
2023-04-28T23:11:17.560Z,37.43
2023-04-28T23:13:45.576Z,38.57
2023-04-28T23:16:13.732Z,46.37
2023-04-28T23:18:41.540Z,43.87
2023-04-28T23:21:09.823Z,49.13
2023-04-28T23:23:37.590Z,49.73
2023-04-28T23:26:05.980Z,46.70
2023-04-28T23:28:33.938Z,48.50
2023-04-28T23:31:01.693Z,50.67
2023-04-28T23:33:29.956Z,45.60
2023-04-28T23:35:57.670Z,46.00
2023-04-28T23:38:26.674Z,47.30
2023-04-28T23:40:54.876Z,51.67
2023-04-28T23:43:22.627Z,47.27
2023-04-28T23:45:50.528Z,52.53
2023-04-28T23:48:18.664Z,52.10
2023-04-28T23:50:46.413Z,56.30
2023-04-28T23:53:14.168Z,52.27
2023-04-28T23:55:42.028Z,54.60
2023-04-28T23:58:09.750Z,54.43
